sensor_id;sensor_type;location;lat;lon;timestamp;temperature;humidity
17425;DHT22;8830;50.978;5.058;2023-04-24T00:01:24;10.90;99.90
17425;DHT22;8830;50.978;5.058;2023-04-24T00:03:51;10.90;99.90
17425;DHT22;8830;50.978;5.058;2023-04-24T00:06:18;11.00;99.90
17425;DHT22;8830;50.978;5.058;2023-04-24T00:08:45;11.00;99.90
17425;DHT22;8830;50.978;5.058;2023-04-24T00:11:12;11.00;99.90
17425;DHT22;8830;50.978;5.058;2023-04-24T00:13:41;11.00;99.90
17425;DHT22;8830;50.978;5.058;2023-04-24T00:16:08;11.00;99.90
17425;DHT22;8830;50.978;5.058;2023-04-24T00:18:35;11.00;99.90
17425;DHT22;8830;50.978;5.058;2023-04-24T00:21:02;10.90;99.90
17425;DHT22;8830;50.978;5.058;2023-04-24T00:23:29;10.90;99.90
17425;DHT22;8830;50.978;5.058;2023-04-24T00:25:58;10.90;99.90
17425;DHT22;8830;50.978;5.058;2023-04-24T00:28:25;10.90;99.90
17425;DHT22;8830;50.978;5.058;2023-04-24T00:30:53;10.90;99.90
17425;DHT22;8830;50.978;5.058;2023-04-24T00:33:20;10.90;99.90
17425;DHT22;8830;50.978;5.058;2023-04-24T00:35:47;11.00;99.90
17425;DHT22;8830;50.978;5.058;2023-04-24T00:38:14;11.00;99.90
17425;DHT22;8830;50.978;5.058;2023-04-24T00:40:41;11.00;99.90
17425;DHT22;8830;50.978;5.058;2023-04-24T00:43:09;10.90;99.90
17425;DHT22;8830;50.978;5.058;2023-04-24T00:45:36;10.90;99.90
17425;DHT22;8830;50.978;5.058;2023-04-24T00:48:05;10.90;99.90
17425;DHT22;8830;50.978;5.058;2023-04-24T00:50:32;10.90;99.90
17425;DHT22;8830;50.978;5.058;2023-04-24T00:53:00;11.00;99.90
17425;DHT22;8830;50.978;5.058;2023-04-24T00:55:27;11.00;99.90
17425;DHT22;8830;50.978;5.058;2023-04-24T00:57:54;11.00;99.90
17425;DHT22;8830;50.978;5.058;2023-04-24T01:00:22;11.00;99.90
17425;DHT22;8830;50.978;5.058;2023-04-24T01:02:49;11.00;99.90
17425;DHT22;8830;50.978;5.058;2023-04-24T01:05:19;11.00;99.90
17425;DHT22;8830;50.978;5.058;2023-04-24T01:07:46;11.00;99.90
17425;DHT22;8830;50.978;5.058;2023-04-24T01:10:15;11.00;99.90
17425;DHT22;8830;50.978;5.058;2023-04-24T01:12:43;11.00;99.90
17425;DHT22;8830;50.978;5.058;2023-04-24T01:15:10;11.00;99.90
17425;DHT22;8830;50.978;5.058;2023-04-24T01:17:37;11.00;99.90
17425;DHT22;8830;50.978;5.058;2023-04-24T01:20:06;10.90;99.90
17425;DHT22;8830;50.978;5.058;2023-04-24T01:22:35;10.90;99.90
17425;DHT22;8830;50.978;5.058;2023-04-24T01:25:03;10.90;99.90
17425;DHT22;8830;50.978;5.058;2023-04-24T01:27:30;10.80;99.90
17425;DHT22;8830;50.978;5.058;2023-04-24T01:29:58;10.80;99.90
17425;DHT22;8830;50.978;5.058;2023-04-24T01:32:25;10.80;99.90
17425;DHT22;8830;50.978;5.058;2023-04-24T01:34:53;10.80;99.90
17425;DHT22;8830;50.978;5.058;2023-04-24T01:37:21;10.80;99.90
17425;DHT22;8830;50.978;5.058;2023-04-24T01:39:49;10.80;99.90
17425;DHT22;8830;50.978;5.058;2023-04-24T01:42:17;10.70;99.90
17425;DHT22;8830;50.978;5.058;2023-04-24T01:44:44;10.70;99.90
17425;DHT22;8830;50.978;5.058;2023-04-24T01:47:12;10.70;99.90
17425;DHT22;8830;50.978;5.058;2023-04-24T01:49:39;10.70;99.90
17425;DHT22;8830;50.978;5.058;2023-04-24T01:52:06;10.70;99.90
17425;DHT22;8830;50.978;5.058;2023-04-24T01:54:33;10.70;99.90
17425;DHT22;8830;50.978;5.058;2023-04-24T01:57:01;10.70;99.90
17425;DHT22;8830;50.978;5.058;2023-04-24T01:59:28;10.80;99.90
17425;DHT22;8830;50.978;5.058;2023-04-24T02:01:56;10.80;99.90
17425;DHT22;8830;50.978;5.058;2023-04-24T02:04:24;10.80;99.90
17425;DHT22;8830;50.978;5.058;2023-04-24T02:06:52;10.80;99.90
17425;DHT22;8830;50.978;5.058;2023-04-24T02:09:19;10.80;99.90
17425;DHT22;8830;50.978;5.058;2023-04-24T02:11:46;10.70;99.90
17425;DHT22;8830;50.978;5.058;2023-04-24T02:14:14;10.70;99.90
17425;DHT22;8830;50.978;5.058;2023-04-24T02:16:41;10.70;99.90
17425;DHT22;8830;50.978;5.058;2023-04-24T02:19:09;10.60;99.90
17425;DHT22;8830;50.978;5.058;2023-04-24T02:21:36;10.60;99.90
17425;DHT22;8830;50.978;5.058;2023-04-24T02:24:04;10.60;99.90
17425;DHT22;8830;50.978;5.058;2023-04-24T02:26:31;10.60;99.90
17425;DHT22;8830;50.978;5.058;2023-04-24T02:28:59;10.60;99.90
17425;DHT22;8830;50.978;5.058;2023-04-24T02:31:27;10.60;99.90
17425;DHT22;8830;50.978;5.058;2023-04-24T02:33:54;10.50;99.90
17425;DHT22;8830;50.978;5.058;2023-04-24T02:36:21;10.50;99.90
17425;DHT22;8830;50.978;5.058;2023-04-24T02:38:49;10.50;99.90
17425;DHT22;8830;50.978;5.058;2023-04-24T02:41:16;10.50;99.90
17425;DHT22;8830;50.978;5.058;2023-04-24T02:43:43;10.50;99.90
17425;DHT22;8830;50.978;5.058;2023-04-24T02:46:11;10.40;99.90
17425;DHT22;8830;50.978;5.058;2023-04-24T02:48:40;10.30;99.90
17425;DHT22;8830;50.978;5.058;2023-04-24T02:51:07;10.20;99.90
17425;DHT22;8830;50.978;5.058;2023-04-24T02:53:35;10.30;99.90
17425;DHT22;8830;50.978;5.058;2023-04-24T02:56:02;10.20;99.90
17425;DHT22;8830;50.978;5.058;2023-04-24T02:58:29;10.20;99.90
17425;DHT22;8830;50.978;5.058;2023-04-24T03:00:57;10.20;99.90
17425;DHT22;8830;50.978;5.058;2023-04-24T03:03:27;10.20;99.90
17425;DHT22;8830;50.978;5.058;2023-04-24T03:05:55;10.20;99.90
17425;DHT22;8830;50.978;5.058;2023-04-24T03:08:22;10.20;99.90
17425;DHT22;8830;50.978;5.058;2023-04-24T03:10:50;9.70;99.90
17425;DHT22;8830;50.978;5.058;2023-04-24T03:13:18;10.10;99.90
17425;DHT22;8830;50.978;5.058;2023-04-24T03:15:45;10.10;99.90
17425;DHT22;8830;50.978;5.058;2023-04-24T03:18:12;10.00;99.90
17425;DHT22;8830;50.978;5.058;2023-04-24T03:20:42;10.00;99.90
17425;DHT22;8830;50.978;5.058;2023-04-24T03:23:10;10.00;99.90
17425;DHT22;8830;50.978;5.058;2023-04-24T03:25:37;10.00;99.90
17425;DHT22;8830;50.978;5.058;2023-04-24T03:28:04;10.00;99.90
17425;DHT22;8830;50.978;5.058;2023-04-24T03:30:31;10.00;99.90
17425;DHT22;8830;50.978;5.058;2023-04-24T03:32:58;10.00;99.90
17425;DHT22;8830;50.978;5.058;2023-04-24T03:35:26;10.00;99.90
17425;DHT22;8830;50.978;5.058;2023-04-24T03:37:54;9.90;99.90
17425;DHT22;8830;50.978;5.058;2023-04-24T03:40:24;10.00;99.90
17425;DHT22;8830;50.978;5.058;2023-04-24T03:42:51;10.10;99.90
17425;DHT22;8830;50.978;5.058;2023-04-24T03:45:18;10.00;99.90
17425;DHT22;8830;50.978;5.058;2023-04-24T03:47:45;10.00;99.90
17425;DHT22;8830;50.978;5.058;2023-04-24T03:50:13;10.10;99.90
17425;DHT22;8830;50.978;5.058;2023-04-24T03:52:40;10.00;99.90
17425;DHT22;8830;50.978;5.058;2023-04-24T03:55:08;10.00;99.90
17425;DHT22;8830;50.978;5.058;2023-04-24T03:57:40;10.00;99.90
17425;DHT22;8830;50.978;5.058;2023-04-24T04:00:08;10.00;99.90
17425;DHT22;8830;50.978;5.058;2023-04-24T04:02:35;10.00;99.90
17425;DHT22;8830;50.978;5.058;2023-04-24T04:05:02;10.00;99.90
17425;DHT22;8830;50.978;5.058;2023-04-24T04:07:29;10.00;99.90
17425;DHT22;8830;50.978;5.058;2023-04-24T04:09:57;10.00;99.90
17425;DHT22;8830;50.978;5.058;2023-04-24T04:12:24;10.00;99.90
17425;DHT22;8830;50.978;5.058;2023-04-24T04:14:52;10.00;99.90
17425;DHT22;8830;50.978;5.058;2023-04-24T04:17:19;10.00;99.90
17425;DHT22;8830;50.978;5.058;2023-04-24T04:19:46;9.90;99.90
17425;DHT22;8830;50.978;5.058;2023-04-24T04:22:14;9.90;99.90
17425;DHT22;8830;50.978;5.058;2023-04-24T04:24:41;9.90;99.90
17425;DHT22;8830;50.978;5.058;2023-04-24T04:27:09;9.90;99.90
17425;DHT22;8830;50.978;5.058;2023-04-24T04:29:36;9.90;99.90
17425;DHT22;8830;50.978;5.058;2023-04-24T04:32:06;9.80;99.90
17425;DHT22;8830;50.978;5.058;2023-04-24T04:34:34;9.90;99.90
17425;DHT22;8830;50.978;5.058;2023-04-24T04:37:03;9.80;99.90
17425;DHT22;8830;50.978;5.058;2023-04-24T04:39:31;9.80;99.90
17425;DHT22;8830;50.978;5.058;2023-04-24T04:41:58;9.80;99.90
17425;DHT22;8830;50.978;5.058;2023-04-24T04:44:26;9.80;99.90
17425;DHT22;8830;50.978;5.058;2023-04-24T04:46:55;9.80;99.90
17425;DHT22;8830;50.978;5.058;2023-04-24T04:49:24;9.90;99.90
17425;DHT22;8830;50.978;5.058;2023-04-24T04:51:53;9.80;99.90
17425;DHT22;8830;50.978;5.058;2023-04-24T04:56:50;9.90;99.90
17425;DHT22;8830;50.978;5.058;2023-04-24T04:59:18;9.90;99.90
17425;DHT22;8830;50.978;5.058;2023-04-24T05:01:45;10.00;99.90
17425;DHT22;8830;50.978;5.058;2023-04-24T05:04:13;9.90;99.90
17425;DHT22;8830;50.978;5.058;2023-04-24T05:06:41;10.00;99.90
17425;DHT22;8830;50.978;5.058;2023-04-24T05:09:11;10.00;99.90
17425;DHT22;8830;50.978;5.058;2023-04-24T05:11:39;9.90;99.90
17425;DHT22;8830;50.978;5.058;2023-04-24T05:14:11;9.90;99.90
17425;DHT22;8830;50.978;5.058;2023-04-24T05:16:40;9.80;99.90
17425;DHT22;8830;50.978;5.058;2023-04-24T05:19:08;9.80;99.90
17425;DHT22;8830;50.978;5.058;2023-04-24T05:21:37;9.70;99.90
17425;DHT22;8830;50.978;5.058;2023-04-24T05:26:41;9.80;99.90
17425;DHT22;8830;50.978;5.058;2023-04-24T05:29:09;9.80;99.90
17425;DHT22;8830;50.978;5.058;2023-04-24T05:31:38;9.80;99.90
17425;DHT22;8830;50.978;5.058;2023-04-24T05:34:06;9.70;99.90
17425;DHT22;8830;50.978;5.058;2023-04-24T05:36:33;9.70;99.90
17425;DHT22;8830;50.978;5.058;2023-04-24T05:39:00;9.70;99.90
17425;DHT22;8830;50.978;5.058;2023-04-24T05:41:29;9.70;99.90
17425;DHT22;8830;50.978;5.058;2023-04-24T05:49:12;9.60;99.90
17425;DHT22;8830;50.978;5.058;2023-04-24T05:51:53;9.60;99.90
17425;DHT22;8830;50.978;5.058;2023-04-24T06:01:49;9.50;99.90
17425;DHT22;8830;50.978;5.058;2023-04-24T06:04:16;9.60;99.90
17425;DHT22;8830;50.978;5.058;2023-04-24T06:06:44;9.60;99.90
17425;DHT22;8830;50.978;5.058;2023-04-24T06:09:12;9.60;99.90
17425;DHT22;8830;50.978;5.058;2023-04-24T06:14:08;9.60;99.90
17425;DHT22;8830;50.978;5.058;2023-04-24T06:16:36;9.50;99.90
17425;DHT22;8830;50.978;5.058;2023-04-24T06:19:10;9.50;99.90
17425;DHT22;8830;50.978;5.058;2023-04-24T06:21:38;9.50;99.90
17425;DHT22;8830;50.978;5.058;2023-04-24T06:24:05;9.50;99.90
17425;DHT22;8830;50.978;5.058;2023-04-24T06:26:33;9.50;99.90
17425;DHT22;8830;50.978;5.058;2023-04-24T06:29:00;9.50;99.90
17425;DHT22;8830;50.978;5.058;2023-04-24T06:31:29;9.50;99.90
17425;DHT22;8830;50.978;5.058;2023-04-24T06:33:55;9.50;99.90
17425;DHT22;8830;50.978;5.058;2023-04-24T06:36:23;9.50;99.90
17425;DHT22;8830;50.978;5.058;2023-04-24T06:38:50;9.50;99.90
17425;DHT22;8830;50.978;5.058;2023-04-24T06:41:17;9.60;99.90
17425;DHT22;8830;50.978;5.058;2023-04-24T06:43:44;9.60;99.90
17425;DHT22;8830;50.978;5.058;2023-04-24T06:46:12;9.70;99.90
17425;DHT22;8830;50.978;5.058;2023-04-24T06:48:41;9.70;99.90
17425;DHT22;8830;50.978;5.058;2023-04-24T06:51:08;9.80;99.90
17425;DHT22;8830;50.978;5.058;2023-04-24T06:53:35;9.80;99.90
17425;DHT22;8830;50.978;5.058;2023-04-24T06:56:03;9.90;99.90
17425;DHT22;8830;50.978;5.058;2023-04-24T06:58:31;10.00;99.90
17425;DHT22;8830;50.978;5.058;2023-04-24T07:00:58;10.00;99.90
17425;DHT22;8830;50.978;5.058;2023-04-24T07:05:54;10.10;99.90
17425;DHT22;8830;50.978;5.058;2023-04-24T07:08:21;10.00;99.90
17425;DHT22;8830;50.978;5.058;2023-04-24T07:10:49;10.10;99.90
17425;DHT22;8830;50.978;5.058;2023-04-24T07:13:17;10.10;99.90
17425;DHT22;8830;50.978;5.058;2023-04-24T07:15:44;10.10;99.90
17425;DHT22;8830;50.978;5.058;2023-04-24T07:18:12;10.10;99.90
17425;DHT22;8830;50.978;5.058;2023-04-24T07:20:41;10.10;99.90
17425;DHT22;8830;50.978;5.058;2023-04-24T07:23:09;10.10;99.90
17425;DHT22;8830;50.978;5.058;2023-04-24T07:28:05;10.10;99.90
17425;DHT22;8830;50.978;5.058;2023-04-24T07:30:32;10.10;99.90
17425;DHT22;8830;50.978;5.058;2023-04-24T07:32:59;10.00;99.90
17425;DHT22;8830;50.978;5.058;2023-04-24T07:35:27;9.90;99.90
17425;DHT22;8830;50.978;5.058;2023-04-24T07:37:54;9.90;99.90
17425;DHT22;8830;50.978;5.058;2023-04-24T07:42:50;10.00;99.90
17425;DHT22;8830;50.978;5.058;2023-04-24T07:45:20;10.00;99.90
17425;DHT22;8830;50.978;5.058;2023-04-24T07:47:49;10.00;99.90
17425;DHT22;8830;50.978;5.058;2023-04-24T07:50:19;10.00;99.90
17425;DHT22;8830;50.978;5.058;2023-04-24T07:52:47;10.00;99.90
17425;DHT22;8830;50.978;5.058;2023-04-24T07:55:14;10.00;99.90
17425;DHT22;8830;50.978;5.058;2023-04-24T07:57:43;10.10;99.90
17425;DHT22;8830;50.978;5.058;2023-04-24T08:00:11;10.20;99.90
17425;DHT22;8830;50.978;5.058;2023-04-24T08:02:39;10.30;99.90
17425;DHT22;8830;50.978;5.058;2023-04-24T08:05:07;10.40;99.90
17425;DHT22;8830;50.978;5.058;2023-04-24T08:07:34;10.50;99.90
17425;DHT22;8830;50.978;5.058;2023-04-24T08:10:02;10.60;99.90
17425;DHT22;8830;50.978;5.058;2023-04-24T08:12:29;10.80;99.90
17425;DHT22;8830;50.978;5.058;2023-04-24T08:14:59;11.00;99.90
17425;DHT22;8830;50.978;5.058;2023-04-24T08:17:26;11.30;99.90
17425;DHT22;8830;50.978;5.058;2023-04-24T08:19:53;11.50;99.90
17425;DHT22;8830;50.978;5.058;2023-04-24T08:22:27;11.50;99.90
17425;DHT22;8830;50.978;5.058;2023-04-24T08:24:54;11.60;99.90
17425;DHT22;8830;50.978;5.058;2023-04-24T08:27:23;11.60;99.90
17425;DHT22;8830;50.978;5.058;2023-04-24T08:29:50;11.80;99.90
17425;DHT22;8830;50.978;5.058;2023-04-24T08:32:19;11.90;99.90
17425;DHT22;8830;50.978;5.058;2023-04-24T08:34:46;12.10;99.90
17425;DHT22;8830;50.978;5.058;2023-04-24T08:37:13;12.10;99.90
17425;DHT22;8830;50.978;5.058;2023-04-24T08:39:40;12.20;99.90
17425;DHT22;8830;50.978;5.058;2023-04-24T08:42:08;12.00;99.90
17425;DHT22;8830;50.978;5.058;2023-04-24T08:44:36;11.70;99.90
17425;DHT22;8830;50.978;5.058;2023-04-24T08:47:04;11.40;99.90
17425;DHT22;8830;50.978;5.058;2023-04-24T08:49:33;11.40;99.90
17425;DHT22;8830;50.978;5.058;2023-04-24T08:52:01;11.30;99.90
17425;DHT22;8830;50.978;5.058;2023-04-24T08:54:29;11.50;99.90
17425;DHT22;8830;50.978;5.058;2023-04-24T08:56:59;11.40;99.90
17425;DHT22;8830;50.978;5.058;2023-04-24T08:59:27;11.20;99.90
17425;DHT22;8830;50.978;5.058;2023-04-24T09:01:55;11.10;99.90
17425;DHT22;8830;50.978;5.058;2023-04-24T09:04:26;10.90;99.90
17425;DHT22;8830;50.978;5.058;2023-04-24T09:06:56;11.20;99.90
17425;DHT22;8830;50.978;5.058;2023-04-24T09:09:24;11.20;99.90
17425;DHT22;8830;50.978;5.058;2023-04-24T09:11:52;11.30;99.90
17425;DHT22;8830;50.978;5.058;2023-04-24T09:14:25;11.60;99.90
17425;DHT22;8830;50.978;5.058;2023-04-24T09:16:53;11.90;99.90
17425;DHT22;8830;50.978;5.058;2023-04-24T09:19:20;12.40;99.90
17425;DHT22;8830;50.978;5.058;2023-04-24T09:21:49;13.00;99.90
17425;DHT22;8830;50.978;5.058;2023-04-24T09:24:21;13.10;99.90
17425;DHT22;8830;50.978;5.058;2023-04-24T09:26:55;13.40;99.90
17425;DHT22;8830;50.978;5.058;2023-04-24T09:29:24;14.10;99.90
17425;DHT22;8830;50.978;5.058;2023-04-24T09:31:51;14.20;99.90
17425;DHT22;8830;50.978;5.058;2023-04-24T09:34:21;14.10;99.90
17425;DHT22;8830;50.978;5.058;2023-04-24T09:36:49;13.90;99.90
17425;DHT22;8830;50.978;5.058;2023-04-24T09:39:19;13.70;99.90
17425;DHT22;8830;50.978;5.058;2023-04-24T09:41:47;13.70;99.90
17425;DHT22;8830;50.978;5.058;2023-04-24T09:44:16;13.70;99.90
17425;DHT22;8830;50.978;5.058;2023-04-24T09:46:51;13.50;99.90
17425;DHT22;8830;50.978;5.058;2023-04-24T09:49:22;13.60;99.90
17425;DHT22;8830;50.978;5.058;2023-04-24T09:51:50;13.70;99.90
17425;DHT22;8830;50.978;5.058;2023-04-24T09:54:20;13.80;99.90
17425;DHT22;8830;50.978;5.058;2023-04-24T09:56:49;14.10;99.90
17425;DHT22;8830;50.978;5.058;2023-04-24T09:59:17;14.00;99.90
17425;DHT22;8830;50.978;5.058;2023-04-24T10:01:45;13.70;99.90
17425;DHT22;8830;50.978;5.058;2023-04-24T10:04:17;13.30;99.90
17425;DHT22;8830;50.978;5.058;2023-04-24T10:06:46;13.00;99.90
17425;DHT22;8830;50.978;5.058;2023-04-24T10:09:14;12.90;99.90
17425;DHT22;8830;50.978;5.058;2023-04-24T10:11:44;13.20;99.90
17425;DHT22;8830;50.978;5.058;2023-04-24T10:14:13;13.20;99.90
17425;DHT22;8830;50.978;5.058;2023-04-24T10:16:41;13.50;99.90
17425;DHT22;8830;50.978;5.058;2023-04-24T10:19:09;13.70;99.90
17425;DHT22;8830;50.978;5.058;2023-04-24T10:21:40;13.70;99.90
17425;DHT22;8830;50.978;5.058;2023-04-24T10:24:12;13.80;99.90
17425;DHT22;8830;50.978;5.058;2023-04-24T10:26:40;13.90;99.90
17425;DHT22;8830;50.978;5.058;2023-04-24T10:29:10;13.80;99.90
17425;DHT22;8830;50.978;5.058;2023-04-24T10:31:38;13.60;99.90
17425;DHT22;8830;50.978;5.058;2023-04-24T10:34:07;13.60;99.90
17425;DHT22;8830;50.978;5.058;2023-04-24T10:36:38;13.20;99.90
17425;DHT22;8830;50.978;5.058;2023-04-24T10:39:08;12.60;99.90
17425;DHT22;8830;50.978;5.058;2023-04-24T10:41:37;12.70;99.90
17425;DHT22;8830;50.978;5.058;2023-04-24T10:44:05;13.00;99.90
17425;DHT22;8830;50.978;5.058;2023-04-24T10:46:34;13.00;99.90
17425;DHT22;8830;50.978;5.058;2023-04-24T10:49:04;13.20;99.90
17425;DHT22;8830;50.978;5.058;2023-04-24T10:51:45;13.10;99.90
17425;DHT22;8830;50.978;5.058;2023-04-24T10:54:23;13.00;99.90
17425;DHT22;8830;50.978;5.058;2023-04-24T10:56:50;12.80;99.90
17425;DHT22;8830;50.978;5.058;2023-04-24T10:59:24;12.70;99.90
17425;DHT22;8830;50.978;5.058;2023-04-24T11:01:54;12.70;99.90
17425;DHT22;8830;50.978;5.058;2023-04-24T11:04:32;12.70;99.90
17425;DHT22;8830;50.978;5.058;2023-04-24T11:07:01;13.20;99.90
17425;DHT22;8830;50.978;5.058;2023-04-24T11:09:31;13.30;99.90
17425;DHT22;8830;50.978;5.058;2023-04-24T11:12:04;13.50;99.90
17425;DHT22;8830;50.978;5.058;2023-04-24T11:15:00;13.40;99.90
17425;DHT22;8830;50.978;5.058;2023-04-24T11:17:33;13.40;99.90
17425;DHT22;8830;50.978;5.058;2023-04-24T11:20:03;13.20;99.90
17425;DHT22;8830;50.978;5.058;2023-04-24T11:22:34;13.20;99.90
17425;DHT22;8830;50.978;5.058;2023-04-24T11:25:05;13.10;99.90
17425;DHT22;8830;50.978;5.058;2023-04-24T11:27:39;13.10;99.90
17425;DHT22;8830;50.978;5.058;2023-04-24T11:30:09;13.10;99.90
17425;DHT22;8830;50.978;5.058;2023-04-24T11:32:39;13.30;99.90
17425;DHT22;8830;50.978;5.058;2023-04-24T11:35:10;13.40;99.90
17425;DHT22;8830;50.978;5.058;2023-04-24T11:37:42;13.50;99.90
17425;DHT22;8830;50.978;5.058;2023-04-24T11:40:12;14.00;99.90
17425;DHT22;8830;50.978;5.058;2023-04-24T11:42:42;14.10;99.90
17425;DHT22;8830;50.978;5.058;2023-04-24T11:45:11;14.30;99.90
17425;DHT22;8830;50.978;5.058;2023-04-24T11:47:40;14.50;99.90
17425;DHT22;8830;50.978;5.058;2023-04-24T11:50:10;14.60;99.90
17425;DHT22;8830;50.978;5.058;2023-04-24T11:52:38;15.10;99.90
17425;DHT22;8830;50.978;5.058;2023-04-24T11:55:07;15.10;99.90
17425;DHT22;8830;50.978;5.058;2023-04-24T11:57:35;15.10;99.90
17425;DHT22;8830;50.978;5.058;2023-04-24T12:00:03;14.80;99.90
17425;DHT22;8830;50.978;5.058;2023-04-24T12:02:31;14.50;99.90
17425;DHT22;8830;50.978;5.058;2023-04-24T12:07:27;13.90;99.90
17425;DHT22;8830;50.978;5.058;2023-04-24T12:09:59;14.00;99.90
17425;DHT22;8830;50.978;5.058;2023-04-24T12:12:27;14.00;99.90
17425;DHT22;8830;50.978;5.058;2023-04-24T12:14:55;14.10;99.90
17425;DHT22;8830;50.978;5.058;2023-04-24T12:17:27;13.90;99.90
17425;DHT22;8830;50.978;5.058;2023-04-24T12:19:58;15.60;99.90
17425;DHT22;8830;50.978;5.058;2023-04-24T12:22:27;14.30;99.90
17425;DHT22;8830;50.978;5.058;2023-04-24T12:25:02;14.20;99.90
17425;DHT22;8830;50.978;5.058;2023-04-24T12:27:30;14.40;99.90
17425;DHT22;8830;50.978;5.058;2023-04-24T12:29:59;14.40;99.90
17425;DHT22;8830;50.978;5.058;2023-04-24T12:32:27;14.40;99.90
17425;DHT22;8830;50.978;5.058;2023-04-24T12:34:55;14.50;99.90
17425;DHT22;8830;50.978;5.058;2023-04-24T12:37:24;14.40;99.90
17425;DHT22;8830;50.978;5.058;2023-04-24T12:40:04;14.30;99.90
17425;DHT22;8830;50.978;5.058;2023-04-24T12:42:33;12.80;99.90
17425;DHT22;8830;50.978;5.058;2023-04-24T12:45:02;14.60;99.90
17425;DHT22;8830;50.978;5.058;2023-04-24T12:47:30;14.70;99.90
17425;DHT22;8830;50.978;5.058;2023-04-24T12:49:58;14.70;99.90
17425;DHT22;8830;50.978;5.058;2023-04-24T12:52:27;14.70;99.90
17425;DHT22;8830;50.978;5.058;2023-04-24T12:54:55;14.50;99.90
17425;DHT22;8830;50.978;5.058;2023-04-24T12:57:25;14.60;99.90
17425;DHT22;8830;50.978;5.058;2023-04-24T12:59:54;14.50;99.90
17425;DHT22;8830;50.978;5.058;2023-04-24T13:02:21;14.50;99.90
17425;DHT22;8830;50.978;5.058;2023-04-24T13:04:49;14.50;99.90
17425;DHT22;8830;50.978;5.058;2023-04-24T13:07:17;14.70;99.90
17425;DHT22;8830;50.978;5.058;2023-04-24T13:09:44;15.00;99.90
17425;DHT22;8830;50.978;5.058;2023-04-24T13:14:40;15.50;99.90
17425;DHT22;8830;50.978;5.058;2023-04-24T13:17:08;15.50;99.90
17425;DHT22;8830;50.978;5.058;2023-04-24T13:19:39;15.40;99.90
17425;DHT22;8830;50.978;5.058;2023-04-24T13:22:08;15.30;99.90
17425;DHT22;8830;50.978;5.058;2023-04-24T13:24:35;15.30;99.90
17425;DHT22;8830;50.978;5.058;2023-04-24T13:27:03;15.20;99.90
17425;DHT22;8830;50.978;5.058;2023-04-24T13:32:00;15.00;99.90
17425;DHT22;8830;50.978;5.058;2023-04-24T13:34:28;15.30;99.90
17425;DHT22;8830;50.978;5.058;2023-04-24T13:36:57;15.20;99.90
17425;DHT22;8830;50.978;5.058;2023-04-24T13:39:25;15.20;99.90
17425;DHT22;8830;50.978;5.058;2023-04-24T13:41:52;15.20;99.90
17425;DHT22;8830;50.978;5.058;2023-04-24T13:44:21;15.20;99.90
17425;DHT22;8830;50.978;5.058;2023-04-24T13:46:50;15.20;99.90
17425;DHT22;8830;50.978;5.058;2023-04-24T13:49:21;15.60;99.90
17425;DHT22;8830;50.978;5.058;2023-04-24T13:51:50;15.90;99.90
17425;DHT22;8830;50.978;5.058;2023-04-24T13:54:18;15.90;99.90
17425;DHT22;8830;50.978;5.058;2023-04-24T13:56:45;15.70;99.90
17425;DHT22;8830;50.978;5.058;2023-04-24T13:59:13;15.50;99.90
17425;DHT22;8830;50.978;5.058;2023-04-24T14:01:40;15.30;99.90
17425;DHT22;8830;50.978;5.058;2023-04-24T14:04:07;14.90;99.90
17425;DHT22;8830;50.978;5.058;2023-04-24T14:06:35;14.90;99.90
17425;DHT22;8830;50.978;5.058;2023-04-24T14:09:03;14.80;99.90
17425;DHT22;8830;50.978;5.058;2023-04-24T14:11:30;12.90;99.90
17425;DHT22;8830;50.978;5.058;2023-04-24T14:13:57;14.80;99.90
17425;DHT22;8830;50.978;5.058;2023-04-24T14:16:25;14.90;99.90
17425;DHT22;8830;50.978;5.058;2023-04-24T14:18:52;14.90;99.90
17425;DHT22;8830;50.978;5.058;2023-04-24T14:21:19;15.00;99.90
17425;DHT22;8830;50.978;5.058;2023-04-24T14:23:48;15.10;99.90
17425;DHT22;8830;50.978;5.058;2023-04-24T14:26:15;15.10;99.90
17425;DHT22;8830;50.978;5.058;2023-04-24T14:28:42;15.10;99.90
17425;DHT22;8830;50.978;5.058;2023-04-24T14:31:09;14.90;99.90
17425;DHT22;8830;50.978;5.058;2023-04-24T14:33:36;14.80;99.90
17425;DHT22;8830;50.978;5.058;2023-04-24T14:36:03;14.70;99.90
17425;DHT22;8830;50.978;5.058;2023-04-24T14:38:31;14.60;99.90
17425;DHT22;8830;50.978;5.058;2023-04-24T14:40:59;14.50;99.90
17425;DHT22;8830;50.978;5.058;2023-04-24T14:43:27;14.50;99.90
17425;DHT22;8830;50.978;5.058;2023-04-24T14:45:54;14.70;99.90
17425;DHT22;8830;50.978;5.058;2023-04-24T14:50:49;15.30;99.90
17425;DHT22;8830;50.978;5.058;2023-04-24T14:53:16;15.30;99.90
17425;DHT22;8830;50.978;5.058;2023-04-24T14:55:44;15.30;99.90
17425;DHT22;8830;50.978;5.058;2023-04-24T14:58:13;15.50;99.90
17425;DHT22;8830;50.978;5.058;2023-04-24T15:00:40;15.70;99.90
17425;DHT22;8830;50.978;5.058;2023-04-24T15:03:07;15.70;99.90
17425;DHT22;8830;50.978;5.058;2023-04-24T15:05:34;15.50;99.90
17425;DHT22;8830;50.978;5.058;2023-04-24T15:08:03;15.50;99.90
17425;DHT22;8830;50.978;5.058;2023-04-24T15:10:30;15.40;99.90
17425;DHT22;8830;50.978;5.058;2023-04-24T15:12:58;15.20;99.90
17425;DHT22;8830;50.978;5.058;2023-04-24T15:15:27;14.80;99.90
17425;DHT22;8830;50.978;5.058;2023-04-24T15:17:54;14.70;99.90
17425;DHT22;8830;50.978;5.058;2023-04-24T15:20:21;14.80;99.90
17425;DHT22;8830;50.978;5.058;2023-04-24T15:22:48;14.60;99.90
17425;DHT22;8830;50.978;5.058;2023-04-24T15:25:15;14.50;99.90
17425;DHT22;8830;50.978;5.058;2023-04-24T15:27:43;14.20;99.90
17425;DHT22;8830;50.978;5.058;2023-04-24T15:30:11;14.20;99.90
17425;DHT22;8830;50.978;5.058;2023-04-24T15:35:09;13.90;99.90
17425;DHT22;8830;50.978;5.058;2023-04-24T15:37:36;13.90;99.90
17425;DHT22;8830;50.978;5.058;2023-04-24T15:40:04;13.80;99.90
17425;DHT22;8830;50.978;5.058;2023-04-24T15:47:29;14.00;99.90
17425;DHT22;8830;50.978;5.058;2023-04-24T15:49:57;14.30;99.90
17425;DHT22;8830;50.978;5.058;2023-04-24T15:52:24;14.40;99.90
17425;DHT22;8830;50.978;5.058;2023-04-24T15:57:19;14.40;99.90
17425;DHT22;8830;50.978;5.058;2023-04-24T15:59:47;14.40;99.90
17425;DHT22;8830;50.978;5.058;2023-04-24T16:02:14;14.40;99.90
17425;DHT22;8830;50.978;5.058;2023-04-24T16:04:44;14.40;99.90
17425;DHT22;8830;50.978;5.058;2023-04-24T16:07:12;14.50;99.90
17425;DHT22;8830;50.978;5.058;2023-04-24T16:09:40;14.40;99.90
17425;DHT22;8830;50.978;5.058;2023-04-24T16:12:08;14.40;99.90
17425;DHT22;8830;50.978;5.058;2023-04-24T16:14:35;14.00;99.90
17425;DHT22;8830;50.978;5.058;2023-04-24T16:17:02;14.00;99.90
17425;DHT22;8830;50.978;5.058;2023-04-24T16:19:30;13.90;99.90
17425;DHT22;8830;50.978;5.058;2023-04-24T16:21:58;13.70;99.90
17425;DHT22;8830;50.978;5.058;2023-04-24T16:24:27;13.80;99.90
17425;DHT22;8830;50.978;5.058;2023-04-24T16:26:55;13.40;99.90
17425;DHT22;8830;50.978;5.058;2023-04-24T16:29:22;14.10;99.90
17425;DHT22;8830;50.978;5.058;2023-04-24T16:31:49;14.00;99.90
17425;DHT22;8830;50.978;5.058;2023-04-24T16:34:17;14.10;99.90
17425;DHT22;8830;50.978;5.058;2023-04-24T16:41:40;13.80;99.90
17425;DHT22;8830;50.978;5.058;2023-04-24T16:44:08;13.70;99.90
17425;DHT22;8830;50.978;5.058;2023-04-24T16:46:35;13.70;99.90